sensor_id;sensor_type;location;lat;lon;timestamp;P1;durP1;ratioP1;P2;durP2;ratioP2
6378;SDS011;3222;48.858;10.128;2023-07-24T00:02:18;7.50;;;6.17;;
6378;SDS011;3222;48.858;10.128;2023-07-24T00:04:44;6.78;;;5.88;;
6378;SDS011;3222;48.858;10.128;2023-07-24T00:07:10;8.37;;;6.30;;
6378;SDS011;3222;48.858;10.128;2023-07-24T00:09:36;7.87;;;6.77;;
6378;SDS011;3222;48.858;10.128;2023-07-24T00:12:01;9.20;;;7.13;;
6378;SDS011;3222;48.858;10.128;2023-07-24T00:14:27;9.53;;;7.30;;
6378;SDS011;3222;48.858;10.128;2023-07-24T00:16:52;10.60;;;7.38;;
6378;SDS011;3222;48.858;10.128;2023-07-24T00:19:18;8.18;;;6.30;;
6378;SDS011;3222;48.858;10.128;2023-07-24T00:21:44;8.15;;;6.82;;
6378;SDS011;3222;48.858;10.128;2023-07-24T00:24:09;9.03;;;6.87;;
6378;SDS011;3222;48.858;10.128;2023-07-24T00:26:35;9.87;;;6.23;;
6378;SDS011;3222;48.858;10.128;2023-07-24T00:29:01;6.47;;;5.83;;
6378;SDS011;3222;48.858;10.128;2023-07-24T00:31:27;9.87;;;6.57;;
6378;SDS011;3222;48.858;10.128;2023-07-24T00:33:53;8.17;;;6.67;;
6378;SDS011;3222;48.858;10.128;2023-07-24T00:36:18;9.00;;;6.60;;
6378;SDS011;3222;48.858;10.128;2023-07-24T00:38:44;8.40;;;6.43;;
6378;SDS011;3222;48.858;10.128;2023-07-24T00:41:10;8.13;;;6.63;;
6378;SDS011;3222;48.858;10.128;2023-07-24T00:43:36;9.30;;;6.37;;
6378;SDS011;3222;48.858;10.128;2023-07-24T00:46:01;7.63;;;6.27;;
6378;SDS011;3222;48.858;10.128;2023-07-24T00:48:28;7.82;;;5.90;;
6378;SDS011;3222;48.858;10.128;2023-07-24T00:50:54;7.37;;;6.50;;
6378;SDS011;3222;48.858;10.128;2023-07-24T00:53:20;7.53;;;6.67;;
6378;SDS011;3222;48.858;10.128;2023-07-24T00:55:46;7.03;;;5.97;;
6378;SDS011;3222;48.858;10.128;2023-07-24T00:58:12;8.18;;;6.28;;
6378;SDS011;3222;48.858;10.128;2023-07-24T01:00:38;8.17;;;5.83;;
6378;SDS011;3222;48.858;10.128;2023-07-24T01:03:05;7.03;;;5.97;;
6378;SDS011;3222;48.858;10.128;2023-07-24T01:05:31;9.53;;;6.70;;
6378;SDS011;3222;48.858;10.128;2023-07-24T01:07:57;8.60;;;6.03;;
6378;SDS011;3222;48.858;10.128;2023-07-24T01:10:23;9.03;;;6.27;;
6378;SDS011;3222;48.858;10.128;2023-07-24T01:12:59;7.20;;;6.50;;
6378;SDS011;3222;48.858;10.128;2023-07-24T01:15:34;7.93;;;5.97;;
6378;SDS011;3222;48.858;10.128;2023-07-24T01:18:06;6.95;;;6.25;;
6378;SDS011;3222;48.858;10.128;2023-07-24T01:20:35;7.32;;;6.25;;
6378;SDS011;3222;48.858;10.128;2023-07-24T01:25:57;7.77;;;6.20;;
6378;SDS011;3222;48.858;10.128;2023-07-24T01:28:24;6.40;;;5.80;;
6378;SDS011;3222;48.858;10.128;2023-07-24T01:30:52;7.87;;;6.13;;
6378;SDS011;3222;48.858;10.128;2023-07-24T01:33:18;6.33;;;5.57;;
6378;SDS011;3222;48.858;10.128;2023-07-24T01:35:45;6.20;;;5.60;;
6378;SDS011;3222;48.858;10.128;2023-07-24T01:38:16;7.70;;;5.60;;
6378;SDS011;3222;48.858;10.128;2023-07-24T01:40:43;6.10;;;5.50;;
6378;SDS011;3222;48.858;10.128;2023-07-24T01:43:09;6.15;;;5.47;;
6378;SDS011;3222;48.858;10.128;2023-07-24T01:45:36;6.80;;;5.83;;
6378;SDS011;3222;48.858;10.128;2023-07-24T01:48:03;7.27;;;5.87;;
6378;SDS011;3222;48.858;10.128;2023-07-24T01:50:29;8.20;;;5.90;;
6378;SDS011;3222;48.858;10.128;2023-07-24T01:52:55;7.73;;;5.73;;
6378;SDS011;3222;48.858;10.128;2023-07-24T01:55:21;7.03;;;5.93;;
6378;SDS011;3222;48.858;10.128;2023-07-24T01:57:46;6.80;;;5.60;;
6378;SDS011;3222;48.858;10.128;2023-07-24T02:00:12;7.40;;;6.07;;
6378;SDS011;3222;48.858;10.128;2023-07-24T02:02:38;6.73;;;5.57;;
6378;SDS011;3222;48.858;10.128;2023-07-24T02:05:04;7.43;;;5.87;;
6378;SDS011;3222;48.858;10.128;2023-07-24T02:07:30;6.07;;;5.30;;
6378;SDS011;3222;48.858;10.128;2023-07-24T02:09:56;6.43;;;5.43;;
6378;SDS011;3222;48.858;10.128;2023-07-24T02:12:23;6.67;;;5.67;;
6378;SDS011;3222;48.858;10.128;2023-07-24T02:14:49;6.80;;;5.80;;
6378;SDS011;3222;48.858;10.128;2023-07-24T02:17:16;7.70;;;6.13;;
6378;SDS011;3222;48.858;10.128;2023-07-24T02:19:43;8.17;;;5.63;;
6378;SDS011;3222;48.858;10.128;2023-07-24T02:22:09;7.20;;;6.20;;
6378;SDS011;3222;48.858;10.128;2023-07-24T02:24:34;7.97;;;5.80;;
6378;SDS011;3222;48.858;10.128;2023-07-24T02:27:00;6.93;;;5.90;;
6378;SDS011;3222;48.858;10.128;2023-07-24T02:29:30;6.73;;;6.07;;
6378;SDS011;3222;48.858;10.128;2023-07-24T02:31:56;6.97;;;5.70;;
6378;SDS011;3222;48.858;10.128;2023-07-24T02:34:24;7.73;;;5.87;;
6378;SDS011;3222;48.858;10.128;2023-07-24T02:36:52;7.83;;;6.07;;
6378;SDS011;3222;48.858;10.128;2023-07-24T02:39:18;6.37;;;5.63;;
6378;SDS011;3222;48.858;10.128;2023-07-24T02:41:45;8.17;;;5.97;;
6378;SDS011;3222;48.858;10.128;2023-07-24T02:44:10;7.13;;;5.80;;
6378;SDS011;3222;48.858;10.128;2023-07-24T02:46:37;8.20;;;6.10;;
6378;SDS011;3222;48.858;10.128;2023-07-24T02:49:03;7.87;;;5.80;;
6378;SDS011;3222;48.858;10.128;2023-07-24T02:51:30;7.70;;;5.90;;
6378;SDS011;3222;48.858;10.128;2023-07-24T02:53:56;7.47;;;5.97;;
6378;SDS011;3222;48.858;10.128;2023-07-24T02:56:21;7.00;;;6.03;;
6378;SDS011;3222;48.858;10.128;2023-07-24T02:58:48;8.00;;;6.03;;
6378;SDS011;3222;48.858;10.128;2023-07-24T03:01:14;7.40;;;5.90;;
6378;SDS011;3222;48.858;10.128;2023-07-24T03:03:40;8.57;;;6.70;;
6378;SDS011;3222;48.858;10.128;2023-07-24T03:06:06;7.87;;;6.63;;
6378;SDS011;3222;48.858;10.128;2023-07-24T03:08:33;7.40;;;6.03;;
6378;SDS011;3222;48.858;10.128;2023-07-24T03:10:59;7.30;;;5.93;;
6378;SDS011;3222;48.858;10.128;2023-07-24T03:13:25;7.43;;;6.00;;
6378;SDS011;3222;48.858;10.128;2023-07-24T03:15:53;8.53;;;6.47;;
6378;SDS011;3222;48.858;10.128;2023-07-24T03:18:20;7.87;;;6.20;;
6378;SDS011;3222;48.858;10.128;2023-07-24T03:20:46;7.40;;;6.47;;
6378;SDS011;3222;48.858;10.128;2023-07-24T03:23:12;7.40;;;6.20;;
6378;SDS011;3222;48.858;10.128;2023-07-24T03:25:38;8.93;;;6.03;;
6378;SDS011;3222;48.858;10.128;2023-07-24T03:28:04;7.17;;;6.10;;
6378;SDS011;3222;48.858;10.128;2023-07-24T03:30:30;7.67;;;5.90;;
6378;SDS011;3222;48.858;10.128;2023-07-24T03:32:56;8.30;;;5.83;;
6378;SDS011;3222;48.858;10.128;2023-07-24T03:35:22;8.57;;;6.17;;
6378;SDS011;3222;48.858;10.128;2023-07-24T03:37:48;8.33;;;6.23;;
6378;SDS011;3222;48.858;10.128;2023-07-24T03:40:14;7.53;;;6.30;;
6378;SDS011;3222;48.858;10.128;2023-07-24T03:42:40;13.07;;;6.40;;
6378;SDS011;3222;48.858;10.128;2023-07-24T03:45:07;9.70;;;6.60;;
6378;SDS011;3222;48.858;10.128;2023-07-24T03:47:33;7.53;;;6.30;;
6378;SDS011;3222;48.858;10.128;2023-07-24T03:49:59;8.43;;;6.83;;
6378;SDS011;3222;48.858;10.128;2023-07-24T03:52:24;9.37;;;6.60;;
6378;SDS011;3222;48.858;10.128;2023-07-24T03:54:51;8.13;;;6.20;;
6378;SDS011;3222;48.858;10.128;2023-07-24T03:57:17;8.53;;;6.40;;
6378;SDS011;3222;48.858;10.128;2023-07-24T03:59:43;7.57;;;6.30;;
6378;SDS011;3222;48.858;10.128;2023-07-24T04:02:09;7.63;;;6.47;;
6378;SDS011;3222;48.858;10.128;2023-07-24T04:04:36;7.60;;;6.40;;
6378;SDS011;3222;48.858;10.128;2023-07-24T04:07:02;7.33;;;5.90;;
6378;SDS011;3222;48.858;10.128;2023-07-24T04:09:29;7.57;;;6.77;;
6378;SDS011;3222;48.858;10.128;2023-07-24T04:11:54;8.83;;;6.57;;
6378;SDS011;3222;48.858;10.128;2023-07-24T04:14:20;9.03;;;6.37;;
6378;SDS011;3222;48.858;10.128;2023-07-24T04:16:45;10.87;;;6.43;;
6378;SDS011;3222;48.858;10.128;2023-07-24T04:19:11;8.30;;;6.30;;
6378;SDS011;3222;48.858;10.128;2023-07-24T04:21:37;7.67;;;6.33;;
6378;SDS011;3222;48.858;10.128;2023-07-24T04:24:03;7.87;;;6.30;;
6378;SDS011;3222;48.858;10.128;2023-07-24T04:26:28;7.63;;;5.77;;
6378;SDS011;3222;48.858;10.128;2023-07-24T04:28:54;9.10;;;6.40;;
6378;SDS011;3222;48.858;10.128;2023-07-24T04:31:20;8.80;;;5.67;;
6378;SDS011;3222;48.858;10.128;2023-07-24T04:33:45;7.83;;;6.37;;
6378;SDS011;3222;48.858;10.128;2023-07-24T04:36:11;7.53;;;6.50;;
6378;SDS011;3222;48.858;10.128;2023-07-24T04:38:37;7.23;;;6.20;;
6378;SDS011;3222;48.858;10.128;2023-07-24T04:41:02;8.37;;;6.80;;
6378;SDS011;3222;48.858;10.128;2023-07-24T04:43:28;9.27;;;6.20;;
6378;SDS011;3222;48.858;10.128;2023-07-24T04:45:55;10.23;;;6.83;;
6378;SDS011;3222;48.858;10.128;2023-07-24T04:48:21;9.80;;;6.57;;
6378;SDS011;3222;48.858;10.128;2023-07-24T04:50:46;10.00;;;6.87;;
6378;SDS011;3222;48.858;10.128;2023-07-24T04:53:17;10.27;;;6.53;;
6378;SDS011;3222;48.858;10.128;2023-07-24T04:55:45;9.10;;;6.73;;
6378;SDS011;3222;48.858;10.128;2023-07-24T04:58:11;8.83;;;6.27;;
6378;SDS011;3222;48.858;10.128;2023-07-24T05:00:37;8.73;;;6.63;;
6378;SDS011;3222;48.858;10.128;2023-07-24T05:03:03;8.17;;;6.27;;
6378;SDS011;3222;48.858;10.128;2023-07-24T05:05:28;8.50;;;6.67;;
6378;SDS011;3222;48.858;10.128;2023-07-24T05:07:57;8.90;;;6.67;;
6378;SDS011;3222;48.858;10.128;2023-07-24T05:10:22;8.47;;;6.40;;
6378;SDS011;3222;48.858;10.128;2023-07-24T05:12:48;8.93;;;6.60;;
6378;SDS011;3222;48.858;10.128;2023-07-24T05:15:13;7.63;;;6.23;;
6378;SDS011;3222;48.858;10.128;2023-07-24T05:17:42;8.83;;;6.70;;
6378;SDS011;3222;48.858;10.128;2023-07-24T05:20:09;9.87;;;6.80;;
6378;SDS011;3222;48.858;10.128;2023-07-24T05:22:35;8.67;;;6.03;;
6378;SDS011;3222;48.858;10.128;2023-07-24T05:25:00;8.43;;;6.17;;
6378;SDS011;3222;48.858;10.128;2023-07-24T05:27:26;8.00;;;6.80;;
6378;SDS011;3222;48.858;10.128;2023-07-24T05:29:52;10.27;;;6.60;;
6378;SDS011;3222;48.858;10.128;2023-07-24T05:32:18;6.60;;;6.00;;
6378;SDS011;3222;48.858;10.128;2023-07-24T05:34:43;7.77;;;6.70;;
6378;SDS011;3222;48.858;10.128;2023-07-24T05:37:09;8.90;;;6.53;;
6378;SDS011;3222;48.858;10.128;2023-07-24T05:39:35;8.63;;;6.67;;
6378;SDS011;3222;48.858;10.128;2023-07-24T05:42:00;8.03;;;6.50;;
6378;SDS011;3222;48.858;10.128;2023-07-24T05:44:26;7.90;;;6.50;;
6378;SDS011;3222;48.858;10.128;2023-07-24T05:46:52;7.67;;;6.63;;
6378;SDS011;3222;48.858;10.128;2023-07-24T05:49:18;8.43;;;6.40;;
6378;SDS011;3222;48.858;10.128;2023-07-24T05:51:43;10.53;;;6.30;;
6378;SDS011;3222;48.858;10.128;2023-07-24T05:54:09;8.93;;;6.50;;
6378;SDS011;3222;48.858;10.128;2023-07-24T05:56:35;12.73;;;6.97;;
6378;SDS011;3222;48.858;10.128;2023-07-24T05:59:01;8.30;;;6.17;;
6378;SDS011;3222;48.858;10.128;2023-07-24T06:01:27;10.07;;;7.30;;
6378;SDS011;3222;48.858;10.128;2023-07-24T06:03:53;8.80;;;6.70;;
6378;SDS011;3222;48.858;10.128;2023-07-24T06:06:19;8.77;;;6.33;;
6378;SDS011;3222;48.858;10.128;2023-07-24T06:08:44;9.83;;;7.00;;
6378;SDS011;3222;48.858;10.128;2023-07-24T06:11:12;9.30;;;7.10;;
6378;SDS011;3222;48.858;10.128;2023-07-24T06:13:39;10.13;;;7.60;;
6378;SDS011;3222;48.858;10.128;2023-07-24T06:16:04;10.83;;;7.20;;
6378;SDS011;3222;48.858;10.128;2023-07-24T06:18:33;9.57;;;7.00;;
6378;SDS011;3222;48.858;10.128;2023-07-24T06:20:59;11.87;;;7.43;;
6378;SDS011;3222;48.858;10.128;2023-07-24T06:23:25;10.77;;;7.77;;
6378;SDS011;3222;48.858;10.128;2023-07-24T06:25:50;11.43;;;7.03;;
6378;SDS011;3222;48.858;10.128;2023-07-24T06:28:18;7.97;;;7.10;;
6378;SDS011;3222;48.858;10.128;2023-07-24T06:30:44;10.40;;;6.93;;
6378;SDS011;3222;48.858;10.128;2023-07-24T06:33:09;11.53;;;7.23;;
6378;SDS011;3222;48.858;10.128;2023-07-24T06:35:35;9.90;;;7.37;;
6378;SDS011;3222;48.858;10.128;2023-07-24T06:38:01;13.57;;;7.90;;
6378;SDS011;3222;48.858;10.128;2023-07-24T06:40:26;8.27;;;6.90;;
6378;SDS011;3222;48.858;10.128;2023-07-24T06:42:52;9.30;;;7.00;;
6378;SDS011;3222;48.858;10.128;2023-07-24T06:45:19;9.20;;;7.20;;
6378;SDS011;3222;48.858;10.128;2023-07-24T06:47:44;9.93;;;7.40;;
6378;SDS011;3222;48.858;10.128;2023-07-24T06:50:10;9.47;;;7.40;;
6378;SDS011;3222;48.858;10.128;2023-07-24T06:52:36;8.80;;;7.20;;
6378;SDS011;3222;48.858;10.128;2023-07-24T06:55:01;9.50;;;7.23;;
6378;SDS011;3222;48.858;10.128;2023-07-24T06:57:27;8.10;;;6.87;;
6378;SDS011;3222;48.858;10.128;2023-07-24T06:59:53;8.53;;;6.97;;
6378;SDS011;3222;48.858;10.128;2023-07-24T07:02:19;8.77;;;7.00;;
6378;SDS011;3222;48.858;10.128;2023-07-24T07:04:45;8.83;;;7.23;;
6378;SDS011;3222;48.858;10.128;2023-07-24T07:07:11;9.80;;;7.30;;
6378;SDS011;3222;48.858;10.128;2023-07-24T07:09:37;9.97;;;7.23;;
6378;SDS011;3222;48.858;10.128;2023-07-24T07:12:03;12.77;;;7.80;;
6378;SDS011;3222;48.858;10.128;2023-07-24T07:14:29;10.93;;;7.53;;
6378;SDS011;3222;48.858;10.128;2023-07-24T07:16:54;9.53;;;7.33;;
6378;SDS011;3222;48.858;10.128;2023-07-24T07:19:20;10.57;;;8.00;;
6378;SDS011;3222;48.858;10.128;2023-07-24T07:21:46;10.13;;;7.30;;
6378;SDS011;3222;48.858;10.128;2023-07-24T07:24:11;9.83;;;7.83;;
6378;SDS011;3222;48.858;10.128;2023-07-24T07:26:37;8.90;;;7.50;;
6378;SDS011;3222;48.858;10.128;2023-07-24T07:29:02;10.10;;;7.53;;
6378;SDS011;3222;48.858;10.128;2023-07-24T07:31:28;9.50;;;7.33;;
6378;SDS011;3222;48.858;10.128;2023-07-24T07:33:54;9.97;;;6.53;;
6378;SDS011;3222;48.858;10.128;2023-07-24T07:36:20;10.50;;;7.10;;
6378;SDS011;3222;48.858;10.128;2023-07-24T07:38:47;8.97;;;7.57;;
6378;SDS011;3222;48.858;10.128;2023-07-24T07:41:13;10.20;;;7.67;;
6378;SDS011;3222;48.858;10.128;2023-07-24T07:43:39;12.47;;;7.37;;
6378;SDS011;3222;48.858;10.128;2023-07-24T07:46:06;10.10;;;7.07;;
6378;SDS011;3222;48.858;10.128;2023-07-24T07:48:31;9.30;;;7.47;;
6378;SDS011;3222;48.858;10.128;2023-07-24T07:50:57;9.10;;;6.47;;
6378;SDS011;3222;48.858;10.128;2023-07-24T07:53:23;10.77;;;6.90;;
6378;SDS011;3222;48.858;10.128;2023-07-24T07:55:58;11.47;;;7.43;;
6378;SDS011;3222;48.858;10.128;2023-07-24T07:58:27;9.37;;;6.67;;
6378;SDS011;3222;48.858;10.128;2023-07-24T08:00:53;8.33;;;6.90;;
6378;SDS011;3222;48.858;10.128;2023-07-24T08:03:19;8.77;;;6.50;;
6378;SDS011;3222;48.858;10.128;2023-07-24T08:05:44;10.60;;;6.97;;
6378;SDS011;3222;48.858;10.128;2023-07-24T08:08:10;9.40;;;6.33;;
6378;SDS011;3222;48.858;10.128;2023-07-24T08:10:39;8.87;;;6.87;;
6378;SDS011;3222;48.858;10.128;2023-07-24T08:13:05;7.90;;;6.80;;
6378;SDS011;3222;48.858;10.128;2023-07-24T08:15:36;8.60;;;6.40;;
6378;SDS011;3222;48.858;10.128;2023-07-24T08:18:03;11.20;;;7.07;;
6378;SDS011;3222;48.858;10.128;2023-07-24T08:20:30;8.83;;;7.13;;
6378;SDS011;3222;48.858;10.128;2023-07-24T08:22:55;14.07;;;6.97;;
6378;SDS011;3222;48.858;10.128;2023-07-24T08:25:21;8.70;;;6.78;;
6378;SDS011;3222;48.858;10.128;2023-07-24T08:27:47;9.03;;;6.93;;
6378;SDS011;3222;48.858;10.128;2023-07-24T08:30:12;8.87;;;7.00;;
6378;SDS011;3222;48.858;10.128;2023-07-24T08:32:38;10.23;;;7.07;;
6378;SDS011;3222;48.858;10.128;2023-07-24T08:35:05;8.17;;;6.43;;
6378;SDS011;3222;48.858;10.128;2023-07-24T08:37:31;10.60;;;7.67;;
6378;SDS011;3222;48.858;10.128;2023-07-24T08:39:56;11.17;;;7.07;;
6378;SDS011;3222;48.858;10.128;2023-07-24T08:42:22;10.17;;;6.80;;
6378;SDS011;3222;48.858;10.128;2023-07-24T08:44:49;9.53;;;8.00;;
6378;SDS011;3222;48.858;10.128;2023-07-24T08:47:16;9.02;;;6.70;;
6378;SDS011;3222;48.858;10.128;2023-07-24T08:49:43;10.07;;;7.20;;
6378;SDS011;3222;48.858;10.128;2023-07-24T08:52:11;8.47;;;6.67;;
6378;SDS011;3222;48.858;10.128;2023-07-24T08:54:37;10.60;;;6.47;;
6378;SDS011;3222;48.858;10.128;2023-07-24T08:57:04;8.07;;;6.10;;
6378;SDS011;3222;48.858;10.128;2023-07-24T08:59:31;7.87;;;6.40;;
6378;SDS011;3222;48.858;10.128;2023-07-24T09:01:57;8.60;;;6.23;;
6378;SDS011;3222;48.858;10.128;2023-07-24T09:04:24;8.93;;;6.47;;
6378;SDS011;3222;48.858;10.128;2023-07-24T09:06:50;7.50;;;6.37;;
6378;SDS011;3222;48.858;10.128;2023-07-24T09:09:16;7.60;;;6.03;;
6378;SDS011;3222;48.858;10.128;2023-07-24T09:11:51;11.03;;;6.47;;
6378;SDS011;3222;48.858;10.128;2023-07-24T09:14:22;7.00;;;6.00;;
6378;SDS011;3222;48.858;10.128;2023-07-24T09:16:49;8.83;;;6.53;;
6378;SDS011;3222;48.858;10.128;2023-07-24T09:19:18;7.60;;;5.68;;
6378;SDS011;3222;48.858;10.128;2023-07-24T09:21:44;7.90;;;5.43;;
6378;SDS011;3222;48.858;10.128;2023-07-24T09:24:14;7.90;;;5.10;;
6378;SDS011;3222;48.858;10.128;2023-07-24T09:26:47;7.43;;;6.10;;
6378;SDS011;3222;48.858;10.128;2023-07-24T09:29:17;7.67;;;5.97;;
6378;SDS011;3222;48.858;10.128;2023-07-24T09:31:44;9.37;;;6.40;;
6378;SDS011;3222;48.858;10.128;2023-07-24T09:34:16;8.93;;;6.40;;
6378;SDS011;3222;48.858;10.128;2023-07-24T09:36:43;9.50;;;5.78;;
6378;SDS011;3222;48.858;10.128;2023-07-24T09:39:10;8.18;;;6.22;;
6378;SDS011;3222;48.858;10.128;2023-07-24T09:41:37;10.05;;;6.85;;
6378;SDS011;3222;48.858;10.128;2023-07-24T09:44:04;9.80;;;6.13;;
6378;SDS011;3222;48.858;10.128;2023-07-24T09:46:30;10.30;;;6.25;;
6378;SDS011;3222;48.858;10.128;2023-07-24T09:48:57;7.90;;;5.93;;
6378;SDS011;3222;48.858;10.128;2023-07-24T09:51:24;9.25;;;6.60;;
6378;SDS011;3222;48.858;10.128;2023-07-24T09:56:15;8.68;;;5.95;;
6378;SDS011;3222;48.858;10.128;2023-07-24T09:58:43;7.00;;;5.50;;
6378;SDS011;3222;48.858;10.128;2023-07-24T10:01:10;7.75;;;6.32;;
6378;SDS011;3222;48.858;10.128;2023-07-24T10:03:39;8.50;;;6.43;;
6378;SDS011;3222;48.858;10.128;2023-07-24T10:06:08;8.45;;;5.70;;
6378;SDS011;3222;48.858;10.128;2023-07-24T10:08:36;8.50;;;6.28;;
6378;SDS011;3222;48.858;10.128;2023-07-24T10:11:04;6.80;;;5.82;;
6378;SDS011;3222;48.858;10.128;2023-07-24T10:13:29;6.78;;;6.15;;
6378;SDS011;3222;48.858;10.128;2023-07-24T10:15:56;6.47;;;5.82;;
6378;SDS011;3222;48.858;10.128;2023-07-24T10:18:26;8.30;;;6.38;;
6378;SDS011;3222;48.858;10.128;2023-07-24T10:21:00;10.00;;;5.73;;
6378;SDS011;3222;48.858;10.128;2023-07-24T10:23:28;7.38;;;5.60;;
6378;SDS011;3222;48.858;10.128;2023-07-24T10:25:54;6.97;;;5.10;;
6378;SDS011;3222;48.858;10.128;2023-07-24T10:28:29;5.90;;;5.30;;
6378;SDS011;3222;48.858;10.128;2023-07-24T10:30:57;5.87;;;4.97;;
6378;SDS011;3222;48.858;10.128;2023-07-24T10:33:23;5.17;;;4.47;;
6378;SDS011;3222;48.858;10.128;2023-07-24T10:35:49;9.43;;;5.20;;
6378;SDS011;3222;48.858;10.128;2023-07-24T10:38:34;4.70;;;4.07;;
6378;SDS011;3222;48.858;10.128;2023-07-24T10:41:03;6.27;;;4.03;;
6378;SDS011;3222;48.858;10.128;2023-07-24T10:43:39;4.80;;;4.30;;
6378;SDS011;3222;48.858;10.128;2023-07-24T10:46:16;5.05;;;4.30;;
6378;SDS011;3222;48.858;10.128;2023-07-24T10:48:44;5.63;;;4.37;;
6378;SDS011;3222;48.858;10.128;2023-07-24T10:51:12;6.22;;;4.32;;
6378;SDS011;3222;48.858;10.128;2023-07-24T10:53:45;5.75;;;4.28;;
6378;SDS011;3222;48.858;10.128;2023-07-24T10:56:15;5.35;;;4.15;;
6378;SDS011;3222;48.858;10.128;2023-07-24T10:58:42;4.57;;;3.92;;
6378;SDS011;3222;48.858;10.128;2023-07-24T11:01:08;6.23;;;4.47;;
6378;SDS011;3222;48.858;10.128;2023-07-24T11:03:36;5.37;;;4.37;;
6378;SDS011;3222;48.858;10.128;2023-07-24T11:06:03;6.37;;;4.87;;
6378;SDS011;3222;48.858;10.128;2023-07-24T11:08:29;6.35;;;4.47;;
6378;SDS011;3222;48.858;10.128;2023-07-24T11:10:56;6.03;;;4.43;;
6378;SDS011;3222;48.858;10.128;2023-07-24T11:13:24;5.67;;;4.70;;
6378;SDS011;3222;48.858;10.128;2023-07-24T11:15:51;6.82;;;5.40;;
6378;SDS011;3222;48.858;10.128;2023-07-24T11:18:18;6.07;;;4.80;;
6378;SDS011;3222;48.858;10.128;2023-07-24T11:20:53;5.30;;;4.20;;
6378;SDS011;3222;48.858;10.128;2023-07-24T11:23:21;7.88;;;5.30;;
6378;SDS011;3222;48.858;10.128;2023-07-24T11:25:49;6.63;;;5.00;;
6378;SDS011;3222;48.858;10.128;2023-07-24T11:28:16;8.20;;;5.53;;
6378;SDS011;3222;48.858;10.128;2023-07-24T11:30:42;10.80;;;5.40;;
6378;SDS011;3222;48.858;10.128;2023-07-24T11:33:10;8.65;;;5.15;;
6378;SDS011;3222;48.858;10.128;2023-07-24T11:35:37;10.73;;;5.50;;
6378;SDS011;3222;48.858;10.128;2023-07-24T11:38:05;8.18;;;5.18;;
6378;SDS011;3222;48.858;10.128;2023-07-24T11:40:39;11.53;;;5.30;;
6378;SDS011;3222;48.858;10.128;2023-07-24T11:43:16;6.80;;;5.57;;
6378;SDS011;3222;48.858;10.128;2023-07-24T11:45:44;9.57;;;5.83;;
6378;SDS011;3222;48.858;10.128;2023-07-24T11:48:11;10.17;;;5.83;;
6378;SDS011;3222;48.858;10.128;2023-07-24T11:50:41;7.30;;;5.88;;
6378;SDS011;3222;48.858;10.128;2023-07-24T11:53:18;8.77;;;6.17;;
6378;SDS011;3222;48.858;10.128;2023-07-24T11:55:52;7.73;;;6.27;;
6378;SDS011;3222;48.858;10.128;2023-07-24T11:58:20;6.53;;;5.82;;
6378;SDS011;3222;48.858;10.128;2023-07-24T12:00:46;6.67;;;5.30;;
6378;SDS011;3222;48.858;10.128;2023-07-24T12:03:13;8.33;;;6.00;;
6378;SDS011;3222;48.858;10.128;2023-07-24T12:05:43;6.77;;;5.53;;
6378;SDS011;3222;48.858;10.128;2023-07-24T12:08:10;7.40;;;5.73;;
6378;SDS011;3222;48.858;10.128;2023-07-24T12:10:39;7.90;;;5.77;;
6378;SDS011;3222;48.858;10.128;2023-07-24T12:13:05;6.80;;;5.43;;
6378;SDS011;3222;48.858;10.128;2023-07-24T12:15:32;7.45;;;5.13;;
6378;SDS011;3222;48.858;10.128;2023-07-24T12:18:00;8.53;;;5.47;;
6378;SDS011;3222;48.858;10.128;2023-07-24T12:20:26;7.00;;;5.13;;
6378;SDS011;3222;48.858;10.128;2023-07-24T12:22:53;8.97;;;6.13;;
6378;SDS011;3222;48.858;10.128;2023-07-24T12:25:19;6.68;;;5.68;;
6378;SDS011;3222;48.858;10.128;2023-07-24T12:27:45;7.88;;;5.32;;
6378;SDS011;3222;48.858;10.128;2023-07-24T12:30:12;8.65;;;5.47;;
6378;SDS011;3222;48.858;10.128;2023-07-24T12:32:38;7.47;;;5.43;;
6378;SDS011;3222;48.858;10.128;2023-07-24T12:35:03;6.63;;;5.32;;
6378;SDS011;3222;48.858;10.128;2023-07-24T12:37:30;6.67;;;5.17;;
6378;SDS011;3222;48.858;10.128;2023-07-24T12:39:56;7.30;;;5.33;;
6378;SDS011;3222;48.858;10.128;2023-07-24T12:42:21;5.40;;;4.63;;
6378;SDS011;3222;48.858;10.128;2023-07-24T12:44:48;6.00;;;5.40;;
6378;SDS011;3222;48.858;10.128;2023-07-24T12:47:14;8.68;;;5.20;;
6378;SDS011;3222;48.858;10.128;2023-07-24T12:49:39;8.70;;;5.83;;
6378;SDS011;3222;48.858;10.128;2023-07-24T12:52:05;7.13;;;5.17;;
6378;SDS011;3222;48.858;10.128;2023-07-24T12:54:32;6.05;;;4.85;;
6378;SDS011;3222;48.858;10.128;2023-07-24T12:56:59;5.57;;;4.93;;
6378;SDS011;3222;48.858;10.128;2023-07-24T12:59:25;9.00;;;5.20;;
6378;SDS011;3222;48.858;10.128;2023-07-24T13:01:51;5.50;;;4.93;;
6378;SDS011;3222;48.858;10.128;2023-07-24T13:04:17;7.35;;;5.47;;
6378;SDS011;3222;48.858;10.128;2023-07-24T13:06:43;6.27;;;5.33;;
6378;SDS011;3222;48.858;10.128;2023-07-24T13:09:09;6.47;;;5.65;;
6378;SDS011;3222;48.858;10.128;2023-07-24T13:11:35;6.85;;;4.90;;
6378;SDS011;3222;48.858;10.128;2023-07-24T13:14:01;5.25;;;4.72;;
6378;SDS011;3222;48.858;10.128;2023-07-24T13:16:27;4.72;;;4.22;;
6378;SDS011;3222;48.858;10.128;2023-07-24T13:18:53;4.53;;;4.00;;
6378;SDS011;3222;48.858;10.128;2023-07-24T13:21:19;6.40;;;4.30;;
6378;SDS011;3222;48.858;10.128;2023-07-24T13:23:44;5.40;;;3.90;;
6378;SDS011;3222;48.858;10.128;2023-07-24T13:26:11;6.03;;;3.90;;
6378;SDS011;3222;48.858;10.128;2023-07-24T13:28:38;4.23;;;3.77;;
6378;SDS011;3222;48.858;10.128;2023-07-24T13:31:12;3.88;;;3.33;;
6378;SDS011;3222;48.858;10.128;2023-07-24T13:33:39;4.33;;;3.70;;
6378;SDS011;3222;48.858;10.128;2023-07-24T13:36:05;3.80;;;3.45;;
6378;SDS011;3222;48.858;10.128;2023-07-24T13:38:31;4.78;;;3.78;;
6378;SDS011;3222;48.858;10.128;2023-07-24T13:40:57;4.85;;;3.75;;
6378;SDS011;3222;48.858;10.128;2023-07-24T13:43:23;4.35;;;3.92;;
6378;SDS011;3222;48.858;10.128;2023-07-24T13:45:49;5.37;;;3.70;;
6378;SDS011;3222;48.858;10.128;2023-07-24T13:48:15;3.95;;;3.40;;
6378;SDS011;3222;48.858;10.128;2023-07-24T13:50:41;3.97;;;3.53;;
6378;SDS011;3222;48.858;10.128;2023-07-24T13:53:06;5.83;;;3.50;;
6378;SDS011;3222;48.858;10.128;2023-07-24T13:55:33;3.90;;;3.42;;
6378;SDS011;3222;48.858;10.128;2023-07-24T13:57:59;4.63;;;3.53;;
6378;SDS011;3222;48.858;10.128;2023-07-24T14:00:25;3.63;;;3.33;;
6378;SDS011;3222;48.858;10.128;2023-07-24T14:02:51;4.68;;;3.50;;
6378;SDS011;3222;48.858;10.128;2023-07-24T14:05:17;3.83;;;3.40;;
6378;SDS011;3222;48.858;10.128;2023-07-24T14:07:43;5.72;;;4.18;;
6378;SDS011;3222;48.858;10.128;2023-07-24T14:10:09;5.72;;;4.90;;
6378;SDS011;3222;48.858;10.128;2023-07-24T14:12:35;5.55;;;4.68;;
6378;SDS011;3222;48.858;10.128;2023-07-24T14:15:00;4.53;;;3.60;;
6378;SDS011;3222;48.858;10.128;2023-07-24T14:17:26;4.05;;;3.65;;
6378;SDS011;3222;48.858;10.128;2023-07-24T14:19:52;4.65;;;4.18;;
6378;SDS011;3222;48.858;10.128;2023-07-24T14:22:18;4.28;;;3.88;;
6378;SDS011;3222;48.858;10.128;2023-07-24T14:24:43;4.13;;;3.72;;
6378;SDS011;3222;48.858;10.128;2023-07-24T14:27:09;4.50;;;3.90;;
6378;SDS011;3222;48.858;10.128;2023-07-24T14:29:35;3.88;;;3.53;;
6378;SDS011;3222;48.858;10.128;2023-07-24T14:32:00;3.85;;;3.55;;
6378;SDS011;3222;48.858;10.128;2023-07-24T14:34:26;5.85;;;3.85;;
6378;SDS011;3222;48.858;10.128;2023-07-24T14:36:52;3.97;;;3.58;;
6378;SDS011;3222;48.858;10.128;2023-07-24T14:39:18;5.30;;;3.88;;
6378;SDS011;3222;48.858;10.128;2023-07-24T14:41:43;4.15;;;3.75;;
6378;SDS011;3222;48.858;10.128;2023-07-24T14:44:09;4.00;;;3.60;;
6378;SDS011;3222;48.858;10.128;2023-07-24T14:46:35;4.18;;;3.78;;
6378;SDS011;3222;48.858;10.128;2023-07-24T14:49:01;4.73;;;3.90;;
6378;SDS011;3222;48.858;10.128;2023-07-24T14:51:27;5.03;;;3.63;;
6378;SDS011;3222;48.858;10.128;2023-07-24T14:53:52;6.15;;;4.05;;
6378;SDS011;3222;48.858;10.128;2023-07-24T14:56:19;4.20;;;3.80;;
6378;SDS011;3222;48.858;10.128;2023-07-24T14:58:45;3.70;;;3.40;;
6378;SDS011;3222;48.858;10.128;2023-07-24T15:01:11;4.68;;;4.20;;
6378;SDS011;3222;48.858;10.128;2023-07-24T15:03:37;5.07;;;3.90;;